Time;durP1;ratioP1;P1;durP2;ratioP2;P2;SDS_P1;SDS_P2;PMS_P1;PMS_P2;Temp;Humidity;BMP_temperature;BMP_pressure;BME280_temperature;BME280_humidity;BME280_pressure;Samples;Min_cycle;Max_cycle;Signal;HPM_P1;HPM_P2
2023/05/10 00:01:03;;;;;;;3.55;3.03;;;20.80;77.30;;;;;;10446146;28;20565;-23
2023/05/10 00:06:05;;;;;;;3.38;2.45;;;20.80;78.70;;;;;;10461664;28;20505;-23
2023/05/10 00:11:07;;;;;;;;;;;20.70;78.00;;;;;;10426270;28;20144;-24
2023/05/10 00:16:10;;;;;;;4.55;2.55;;;20.70;78.60;;;;;;10434286;28;20320;-23
2023/05/10 00:21:12;;;;;;;4.30;3.08;;;20.70;77.00;;;;;;10456320;28;20123;-24
2023/05/10 00:26:13;;;;;;;4.30;2.80;;;20.70;78.20;;;;;;10453142;28;20076;-24
2023/05/10 00:31:17;;;;;;;6.03;3.25;;;20.70;77.50;;;;;;10427002;28;20156;-22
2023/05/10 00:36:18;;;;;;;5.50;2.97;;;20.60;79.00;;;;;;10447561;28;20076;-24
2023/05/10 00:41:20;;;;;;;4.03;2.65;;;20.50;77.70;;;;;;10436963;28;20503;-24
2023/05/10 00:46:24;;;;;;;10.35;5.50;;;20.50;78.80;;;;;;10445136;28;20470;-24
2023/05/10 00:51:26;;;;;;;4.05;3.10;;;20.30;79.10;;;;;;10440581;28;20390;-24
2023/05/10 00:56:29;;;;;;;3.72;3.05;;;20.50;78.20;;;;;;10446823;28;20118;-24
2023/05/10 01:01:33;;;;;;;4.43;2.50;;;20.50;78.10;;;;;;10444795;28;20045;-24
2023/05/10 01:06:35;;;;;;;3.53;2.85;;;20.20;79.30;;;;;;10434507;28;20553;-24
2023/05/10 01:11:38;;;;;;;5.50;3.15;;;20.30;80.00;;;;;;10436096;28;20041;-25
2023/05/10 01:16:43;;;;;;;4.35;2.85;;;20.30;78.50;;;;;;10443628;28;20077;-24
2023/05/10 01:22:05;;;;;;;5.25;3.53;;;20.30;77.70;;;;;;10437825;28;20123;-22
2023/05/10 01:27:30;;;;;;;9.65;3.97;;;20.20;79.30;;;;;;10439520;28;20498;-22
2023/05/10 01:32:40;;;;;;;5.05;3.35;;;20.00;80.10;;;;;;10444790;28;20049;-24
2023/05/10 01:37:47;;;;;;;4.30;2.78;;;18.70;92.30;;;;;;10454761;28;20067;-25
2023/05/10 01:42:55;;;;;;;9.63;5.03;;;18.80;91.80;;;;;;10454061;28;20497;-25
2023/05/10 01:48:07;;;;;;;9.73;4.68;;;18.80;91.80;;;;;;10455009;28;20768;-24
2023/05/10 01:53:10;;;;;;;6.57;3.07;;;17.20;99.00;;;;;;10452619;28;20616;-24
2023/05/10 01:58:16;;;;;;;4.35;2.80;;;17.60;97.80;;;;;;10456331;28;20103;-24
2023/05/10 02:03:22;;;;;;;5.25;2.95;;;19.00;91.50;;;;;;10453385;28;20075;-24
2023/05/10 02:08:25;;;;;;;5.70;2.88;;;18.70;92.30;;;;;;10451038;28;20098;-24
2023/05/10 02:13:29;;;;;;;4.63;2.65;;;19.00;91.10;;;;;;10450317;28;20132;-24
2023/05/10 02:18:34;;;;;;;4.00;2.42;;;18.70;93.90;;;;;;10456614;28;20069;-24
2023/05/10 02:23:38;;;;;;;5.18;3.15;;;19.30;87.90;;;;;;10453182;28;20045;-24
2023/05/10 02:28:41;;;;;;;3.10;2.47;;;19.80;83.90;;;;;;10456189;28;20458;-23
2023/05/10 02:33:46;;;;;;;7.13;3.00;;;19.40;88.60;;;;;;10452620;28;20143;-24
2023/05/10 02:38:51;;;;;;;18.85;6.95;;;18.60;93.50;;;;;;10459568;28;20493;-24
2023/05/10 02:43:56;;;;;;;11.60;5.97;;;18.90;91.00;;;;;;10457394;28;20045;-24
2023/05/10 02:49:00;;;;;;;20.40;9.45;;;17.30;99.90;;;;;;10451796;28;20051;-23
2023/05/10 02:54:08;;;;;;;6.47;3.88;;;15.80;99.90;;;;;;10451239;28;20091;-23
2023/05/10 02:59:10;;;;;;;6.47;4.35;;;16.60;99.90;;;;;;10453589;28;20052;-23
2023/05/10 03:04:14;;;;;;;;;;;16.30;99.90;;;;;;10444975;28;20134;-22
2023/05/10 03:09:16;;;;;;;8.23;4.75;;;17.10;99.90;;;;;;10448048;28;19931;-23
2023/05/10 03:14:28;;;;;;;7.45;4.78;;;17.30;99.90;;;;;;10452507;28;20041;-23
2023/05/10 03:19:38;;;;;;;4.53;3.08;;;17.70;97.20;;;;;;10445216;28;20041;-23
2023/05/10 03:24:42;;;;;;;4.35;3.20;;;18.60;93.40;;;;;;10443206;28;20471;-23
2023/05/10 03:29:46;;;;;;;4.80;3.00;;;18.80;92.90;;;;;;10447027;28;20073;-21
2023/05/10 03:34:49;;;;;;;7.85;4.82;;;18.50;94.00;;;;;;10451196;28;20057;-23
2023/05/10 03:39:51;;;;;;;23.52;10.13;;;17.30;99.20;;;;;;10445806;28;20049;-22
2023/05/10 03:44:53;;;;;;;8.48;5.38;;;16.80;99.90;;;;;;10444571;28;20087;-23
2023/05/10 03:49:56;;;;;;;12.30;6.55;;;17.60;98.00;;;;;;10448245;28;20501;-23
2023/05/10 03:54:58;;;;;;;7.65;4.63;;;16.70;99.90;;;;;;10455729;28;20115;-22
2023/05/10 04:00:00;;;;;;;10.07;4.60;;;15.60;99.90;;;;;;10444753;28;20158;-23
2023/05/10 04:05:04;;;;;;;4.40;3.28;;;17.10;99.90;;;;;;10446023;28;20516;-23
2023/05/10 04:10:06;;;;;;;5.18;3.50;;;16.90;99.90;;;;;;10440776;28;20041;-24
2023/05/10 04:15:09;;;;;;;5.47;2.90;;;17.30;99.60;;;;;;10441973;28;20049;-24
2023/05/10 04:20:13;;;;;;;6.25;2.63;;;17.80;97.30;;;;;;10438855;28;20091;-23
2023/05/10 04:25:15;;;;;;;3.30;2.53;;;18.60;93.00;;;;;;10442890;28;20135;-23
2023/05/10 04:30:17;;;;;;;4.85;3.03;;;16.40;99.90;;;;;;10451116;28;20107;-23
2023/05/10 04:35:21;;;;;;;3.42;2.40;;;16.00;99.90;;;;;;10447369;28;20132;-23
2023/05/10 04:40:23;;;;;;;7.82;4.25;;;16.90;99.90;;;;;;10448958;28;20470;-22
2023/05/10 04:45:25;;;;;;;8.55;3.70;;;16.60;99.90;;;;;;10449953;28;20064;-22
2023/05/10 04:50:28;;;;;;;15.13;6.38;;;17.40;99.30;;;;;;10432098;28;20045;-23
2023/05/10 04:55:30;;;;;;;4.47;2.13;;;16.50;99.90;;;;;;10450437;28;20047;-23
2023/05/10 05:00:31;;;;;;;15.68;5.38;;;17.90;98.80;;;;;;10438573;28;20183;-23
2023/05/10 05:05:35;;;;;;;3.78;2.75;;;16.20;99.90;;;;;;10432895;28;20072;-23
2023/05/10 05:10:36;;;;;;;3.03;1.90;;;17.70;99.20;;;;;;10441564;28;20056;-23
2023/05/10 05:15:38;;;;;;;7.43;2.80;;;17.40;99.90;;;;;;10439104;28;20077;-23
2023/05/10 05:20:43;;;;;;;7.95;2.80;;;16.80;99.90;;;;;;10439345;28;20044;-23
2023/05/10 05:25:45;;;;;;;5.15;2.47;;;16.60;99.90;;;;;;10437160;28;20048;-23
2023/05/10 05:30:46;;;;;;;12.93;3.72;;;17.60;99.10;;;;;;10440428;28;20474;-23
2023/05/10 05:35:50;;;;;;;2.60;1.70;;;17.30;99.90;;;;;;10442864;28;20041;-22
2023/05/10 05:40:52;;;;;;;3.90;1.98;;;18.20;96.40;;;;;;10428066;28;20122;-23
2023/05/10 05:45:54;;;;;;;3.35;2.25;;;18.40;94.90;;;;;;10429795;28;20077;-23
2023/05/10 05:50:58;;;;;;;4.22;2.67;;;19.10;91.10;;;;;;10438705;28;20459;-24
2023/05/10 05:56:00;;;;;;;3.10;2.00;;;17.50;98.80;;;;;;10436011;28;20049;-24
2023/05/10 06:01:02;;;;;;;3.63;2.20;;;18.40;95.40;;;;;;10429843;28;20132;-24
2023/05/10 06:06:05;;;;;;;5.57;2.55;;;18.80;92.20;;;;;;10435065;28;20485;-24
2023/05/10 06:11:07;;;;;;;6.13;2.22;;;17.70;98.30;;;;;;10445222;28;20075;-24
2023/05/10 06:16:09;;;;;;;3.53;2.05;;;18.40;94.90;;;;;;10437996;28;20084;-24
2023/05/10 06:21:12;;;;;;;6.20;3.30;;;18.80;92.20;;;;;;10427088;28;20041;-24
2023/05/10 06:26:14;;;;;;;7.10;2.58;;;18.90;92.40;;;;;;10447808;28;20041;-24
2023/05/10 06:31:16;;;;;;;3.22;1.83;;;19.10;90.40;;;;;;10448367;28;20147;-24
2023/05/10 06:36:19;;;;;;;4.90;2.22;;;18.20;95.90;;;;;;10452668;28;20045;-23
2023/05/10 06:41:21;;;;;;;6.28;2.78;;;17.40;99.70;;;;;;10442096;28;20139;-23
2023/05/10 06:46:23;;;;;;;4.13;1.63;;;17.40;99.90;;;;;;10435045;28;20164;-23
2023/05/10 06:51:27;;;;;;;3.35;1.80;;;18.40;95.00;;;;;;10448130;28;20505;-23
2023/05/10 06:56:29;;;;;;;5.75;1.92;;;19.00;91.80;;;;;;10446534;28;20159;-24
2023/05/10 07:01:30;;;;;;;6.93;2.88;;;18.00;99.00;;;;;;10450566;28;20581;-24
2023/05/10 07:06:34;;;;;;;6.30;4.40;;;16.90;99.90;;;;;;10450158;28;20041;-23
2023/05/10 07:11:37;;;;;;;5.38;1.95;;;16.70;99.90;;;;;;10449455;28;20037;-24
2023/05/10 07:16:38;;;;;;;3.97;2.00;;;18.20;96.00;;;;;;10438776;28;20128;-23
2023/05/10 07:21:43;;;;;;;4.25;1.80;;;18.20;95.90;;;;;;10439540;28;20053;-24
2023/05/10 07:26:45;;;;;;;3.30;2.08;;;17.30;99.90;;;;;;10444710;28;20059;-24
2023/05/10 07:31:46;;;;;;;5.60;2.22;;;18.60;95.70;;;;;;10438063;28;20394;-23
2023/05/10 07:36:50;;;;;;;2.45;2.25;;;19.70;93.80;;;;;;10437546;28;20081;-23
2023/05/10 07:41:51;;;;;;;3.90;1.80;;;19.80;92.90;;;;;;10438282;28;20057;-22
2023/05/10 07:46:53;;;;;;;4.95;1.90;;;19.40;96.70;;;;;;10437028;28;20140;-24
2023/05/10 07:51:56;;;;;;;6.85;2.13;;;18.90;96.40;;;;;;10448608;28;20121;-23
2023/05/10 07:56:59;;;;;;;6.25;3.47;;;17.00;99.90;;;;;;10449119;28;20135;-23
2023/05/10 08:02:01;;;;;;;16.23;4.55;;;18.30;99.40;;;;;;10444074;28;20045;-22
2023/05/10 08:07:04;;;;;;;17.58;5.50;;;17.10;99.90;;;;;;10447802;28;20053;-23
2023/05/10 08:12:06;;;;;;;15.57;5.10;;;17.90;99.90;;;;;;10436887;28;20489;-24
2023/05/10 08:17:08;;;;;;;;;;;19.30;96.30;;;;;;10443076;28;20147;-23
2023/05/10 08:22:11;;;;;;;13.60;4.32;;;20.20;91.80;;;;;;10440834;28;20007;-23
2023/05/10 08:27:13;;;;;;;14.63;5.75;;;20.10;91.80;;;;;;10442316;28;20059;-23
2023/05/10 08:32:15;;;;;;;7.97;3.60;;;20.20;91.10;;;;;;10430973;28;20041;-24
2023/05/10 08:37:18;;;;;;;8.38;3.58;;;19.50;91.60;;;;;;10449874;28;20710;-23
2023/05/10 08:42:23;;;;;;;10.77;3.28;;;19.50;95.90;;;;;;10443618;28;20041;-22
2023/05/10 08:47:26;;;;;;;6.57;2.85;;;20.30;92.10;;;;;;10447408;28;20553;-23
2023/05/10 08:52:31;;;;;;;8.00;2.75;;;19.80;93.00;;;;;;10444186;28;20061;-24
2023/05/10 08:57:33;;;;;;;5.30;2.75;;;20.30;91.00;;;;;;10447501;28;20049;-24
2023/05/10 09:02:36;;;;;;;6.07;2.50;;;20.20;90.70;;;;;;10435302;28;20080;-24
2023/05/10 09:07:39;;;;;;;9.20;2.33;;;19.50;93.40;;;;;;10454041;28;21480;-23
2023/05/10 09:12:43;;;;;;;4.97;2.50;;;20.70;88.50;;;;;;10435759;28;20072;-24
2023/05/10 09:17:46;;;;;;;4.57;2.72;;;20.20;90.70;;;;;;10448081;28;20057;-24
2023/05/10 09:22:49;;;;;;;3.85;2.30;;;20.40;89.70;;;;;;10447418;28;20091;-25
2023/05/10 09:27:53;;;;;;;3.83;2.03;;;20.20;91.10;;;;;;10449934;28;20554;-23
2023/05/10 09:32:56;;;;;;;2.88;1.70;;;20.30;89.70;;;;;;10436416;28;20095;-22
2023/05/10 09:38:02;;;;;;;2.60;1.65;;;19.60;93.30;;;;;;10435474;28;20111;-22
2023/05/10 09:43:06;;;;;;;3.65;1.90;;;20.20;91.00;;;;;;10439992;28;20045;-23
2023/05/10 09:48:08;;;;;;;3.25;1.83;;;21.00;85.30;;;;;;10444382;28;20102;-23
2023/05/10 09:53:15;;;;;;;;;;;19.90;91.90;;;;;;10445912;28;20121;-24
2023/05/10 09:58:17;;;;;;;3.90;1.40;;;19.20;95.00;;;;;;10452746;28;20020;-24
2023/05/10 10:03:20;;;;;;;4.75;1.42;;;19.50;94.90;;;;;;10447379;28;20057;-24
2023/05/10 10:08:24;;;;;;;3.00;1.55;;;19.90;93.00;;;;;;10450353;28;20130;-25
2023/05/10 10:13:26;;;;;;;5.07;2.10;;;19.80;93.70;;;;;;10448736;28;20064;-23
2023/05/10 10:18:28;;;;;;;3.47;2.15;;;18.90;97.50;;;;;;10446696;28;20052;-23
2023/05/10 10:23:31;;;;;;;3.10;1.48;;;19.60;93.50;;;;;;10437014;28;20049;-24
2023/05/10 10:28:40;;;;;;;5.70;1.65;;;19.80;92.20;;;;;;10446705;28;20081;-24
2023/05/10 10:33:57;;;;;;;3.63;1.63;;;19.90;93.20;;;;;;10448392;28;20420;-24
2023/05/10 10:39:02;;;;;;;1.50;1.38;;;19.50;95.00;;;;;;10437552;28;20132;-23
2023/05/10 10:44:24;;;;;;;5.15;3.03;;;20.00;92.50;;;;;;10443439;28;20463;-24
2023/05/10 10:49:26;;;;;;;5.90;3.75;;;19.60;92.60;;;;;;10431099;28;20056;-23
2023/05/10 10:54:29;;;;;;;5.60;2.53;;;19.00;94.00;;;;;;10440797;28;20083;-23
2023/05/10 10:59:31;;;;;;;6.93;3.33;;;19.60;92.30;;;;;;10449279;28;20537;-24
2023/05/10 11:04:43;;;;;;;7.40;3.30;;;18.70;95.80;;;;;;10454947;28;20053;-24
2023/05/10 11:09:47;;;;;;;9.17;4.10;;;18.10;99.90;;;;;;10445334;28;20055;-23
2023/05/10 11:14:51;;;;;;;3.40;2.13;;;17.70;99.90;;;;;;10436149;28;20088;-22
2023/05/10 11:20:08;;;;;;;6.03;3.60;;;17.80;99.90;;;;;;10432800;28;20049;-24
2023/05/10 11:25:12;;;;;;;4.22;2.50;;;19.30;95.00;;;;;;10433010;28;20060;-26
2023/05/10 11:30:15;;;;;;;9.18;5.13;;;18.50;98.90;;;;;;10442481;28;20072;-23
2023/05/10 11:35:17;;;;;;;4.60;2.30;;;18.60;97.20;;;;;;10448795;28;20521;-23
2023/05/10 11:40:24;;;;;;;5.60;3.10;;;19.30;95.20;;;;;;10437194;28;20154;-24
2023/05/10 11:45:27;;;;;;;4.30;2.50;;;19.40;94.80;;;;;;10442972;28;20057;-24
2023/05/10 11:50:29;;;;;;;3.30;1.92;;;19.20;95.20;;;;;;10442171;28;20045;-24
2023/05/10 11:55:35;;;;;;;7.82;3.50;;;20.20;90.80;;;;;;10442524;28;20049;-25
2023/05/10 12:00:37;;;;;;;4.93;3.30;;;19.60;92.50;;;;;;10441414;28;20087;-26
2023/05/10 12:05:41;;;;;;;5.07;2.55;;;19.10;94.90;;;;;;10447346;28;20124;-25
2023/05/10 12:10:44;;;;;;;7.95;4.53;;;19.10;96.40;;;;;;10437969;28;20099;-25
2023/05/10 12:15:46;;;;;;;5.90;2.80;;;19.40;92.70;;;;;;10447507;28;20053;-25
2023/05/10 12:20:48;;;;;;;4.47;2.10;;;18.50;98.30;;;;;;10446466;28;20080;-24
2023/05/10 12:25:53;;;;;;;3.75;1.63;;;19.30;95.70;;;;;;10443694;28;20135;-25
2023/05/10 12:30:55;;;;;;;6.70;4.32;;;20.20;91.10;;;;;;10440047;28;20128;-27
2023/05/10 12:36:00;;;;;;;5.28;2.50;;;19.10;94.60;;;;;;10434973;28;20046;-24
2023/05/10 12:41:05;;;;;;;2.17;1.90;;;18.40;99.30;;;;;;10446180;28;20155;-24
2023/05/10 12:46:08;;;;;;;2.13;1.58;;;19.70;93.60;;;;;;10437882;28;20091;-24
2023/05/10 12:51:12;;;;;;;3.35;1.60;;;19.60;93.70;;;;;;10443718;28;20107;-24
2023/05/10 12:56:15;;;;;;;3.25;1.63;;;20.30;90.50;;;;;;10446933;28;20048;-24
2023/05/10 13:01:17;;;;;;;5.20;2.33;;;19.90;92.20;;;;;;10428851;28;20501;-24
2023/05/10 13:06:19;;;;;;;7.28;3.13;;;20.10;90.70;;;;;;10444584;28;20099;-24
2023/05/10 13:11:22;;;;;;;2.70;1.75;;;18.50;97.30;;;;;;10446899;28;20492;-25
2023/05/10 13:16:24;;;;;;;4.88;2.80;;;19.80;93.70;;;;;;10447407;28;20442;-24
2023/05/10 13:21:26;;;;;;;4.38;2.22;;;19.50;92.40;;;;;;10441357;28;20087;-24
2023/05/10 13:26:29;;;;;;;2.60;1.17;;;19.80;91.30;;;;;;10445794;28;20048;-25
2023/05/10 13:31:31;;;;;;;2.97;1.80;;;19.70;92.90;;;;;;10443568;28;20114;-24
2023/05/10 13:36:33;;;;;;;4.30;2.78;;;19.80;92.80;;;;;;10429415;28;20132;-22
2023/05/10 13:41:37;;;;;;;3.75;2.45;;;18.30;99.30;;;;;;10446254;28;20136;-25
2023/05/10 13:46:38;;;;;;;2.20;1.52;;;18.80;97.50;;;;;;10444918;28;20470;-24
2023/05/10 13:51:40;;;;;;;4.55;2.10;;;18.80;99.10;;;;;;10450168;28;20430;-24
2023/05/10 13:56:43;;;;;;;7.35;3.80;;;19.00;97.60;;;;;;10445803;28;20079;-24
2023/05/10 14:01:45;;;;;;;7.38;4.28;;;18.50;99.20;;;;;;10439959;28;20053;-25
2023/05/10 14:06:47;;;;;;;3.05;1.98;;;19.20;94.30;;;;;;10442305;28;20068;-25
2023/05/10 14:11:50;;;;;;;4.72;3.20;;;18.90;99.90;;;;;;10439741;28;20044;-24
2023/05/10 14:16:52;;;;;;;5.65;2.78;;;18.00;99.90;;;;;;10444175;28;20140;-24
2023/05/10 14:21:54;;;;;;;4.22;2.47;;;18.90;97.80;;;;;;10433033;28;20152;-25
2023/05/10 14:26:58;;;;;;;3.17;2.25;;;18.50;99.50;;;;;;10441441;28;20091;-24
2023/05/10 14:32:00;;;;;;;3.15;2.45;;;18.80;99.90;;;;;;10442997;28;20041;-24
2023/05/10 14:37:02;;;;;;;3.22;2.40;;;18.50;99.90;;;;;;10451612;28;20040;-24
2023/05/10 14:42:05;;;;;;;3.08;2.67;;;19.60;94.40;;;;;;10441206;28;20081;-23
2023/05/10 14:47:07;;;;;;;3.17;2.15;;;18.50;98.20;;;;;;10443244;28;20051;-24
2023/05/10 14:52:09;;;;;;;6.07;3.58;;;18.80;99.90;;;;;;10449627;28;20041;-24
2023/05/10 14:57:12;;;;;;;;;;;18.80;99.00;;;;;;10447201;28;20049;-24
2023/05/10 15:02:15;;;;;;;7.18;3.45;;;18.20;99.90;;;;;;10446417;28;19929;-24
2023/05/10 15:07:18;;;;;;;5.43;2.38;;;19.40;97.20;;;;;;10453397;28;20137;-24
2023/05/10 15:12:21;;;;;;;3.50;2.35;;;18.40;99.90;;;;;;10460572;28;20056;-23
2023/05/10 15:17:23;;;;;;;5.28;3.45;;;19.00;97.70;;;;;;10444323;28;20080;-24
2023/05/10 15:22:25;;;;;;;7.03;4.90;;;19.10;96.00;;;;;;10439642;28;20532;-23
2023/05/10 15:27:28;;;;;;;6.75;4.50;;;19.50;94.70;;;;;;10445893;28;20051;-24
2023/05/10 15:32:30;;;;;;;3.28;2.40;;;19.70;97.00;;;;;;10442562;28;20354;-24
2023/05/10 15:37:32;;;;;;;3.50;2.03;;;19.20;99.90;;;;;;10440705;28;20531;-24
2023/05/10 15:42:35;;;;;;;6.82;4.22;;;20.30;95.30;;;;;;10450683;28;20049;-26
2023/05/10 15:47:39;;;;;;;6.47;3.63;;;19.50;96.40;;;;;;10448624;28;20055;-24
2023/05/10 15:52:41;;;;;;;9.77;5.10;;;20.00;97.80;;;;;;10445454;28;20045;-23
2023/05/10 15:57:45;;;;;;;3.15;2.40;;;20.80;90.60;;;;;;10441399;28;20141;-24
2023/05/10 16:02:46;;;;;;;5.60;3.35;;;19.90;97.90;;;;;;10440294;28;20481;-22
2023/05/10 16:07:48;;;;;;;7.00;4.75;;;20.90;91.70;;;;;;10442187;28;22703;-26
2023/05/10 16:12:53;;;;;;;3.25;2.80;;;19.90;93.40;;;;;;10437707;28;20045;-23
2023/05/10 16:17:55;;;;;;;2.95;2.17;;;20.20;98.00;;;;;;10443230;28;20059;-24
2023/05/10 16:22:57;;;;;;;4.35;3.45;;;20.20;97.80;;;;;;10437161;28;20124;-24
2023/05/10 16:28:00;;;;;;;6.53;3.92;;;20.90;90.70;;;;;;10438269;28;20478;-24
2023/05/10 16:33:03;;;;;;;3.47;2.53;;;20.70;90.10;;;;;;10440023;28;20551;-24
2023/05/10 16:38:05;;;;;;;6.60;4.30;;;20.80;94.20;;;;;;10441222;28;20073;-24
2023/05/10 16:43:08;;;;;;;;;;;19.80;95.50;;;;;;10444541;28;20092;-25
2023/05/10 16:48:10;;;;;;;5.05;2.75;;;20.40;97.20;;;;;;10438697;28;19964;-25
2023/05/10 16:53:12;;;;;;;5.35;2.42;;;21.20;92.40;;;;;;10441758;28;20037;-24
2023/05/10 16:58:16;;;;;;;7.18;4.05;;;22.20;86.20;;;;;;10444835;28;20095;-24
2023/05/10 17:03:17;;;;;;;9.02;2.45;;;20.90;79.50;;;;;;10439097;28;20132;-23
2023/05/10 17:08:19;;;;;;;9.38;4.07;;;21.20;92.50;;;;;;10445374;28;20117;-23
2023/05/10 17:13:22;;;;;;;4.60;2.42;;;21.90;89.00;;;;;;10444737;28;20068;-24
2023/05/10 17:18:25;;;;;;;9.43;3.33;;;21.20;86.20;;;;;;10446111;28;20077;-23
2023/05/10 17:23:27;;;;;;;5.47;2.53;;;21.80;90.40;;;;;;10443659;28;20056;-23
2023/05/10 17:28:31;;;;;;;6.90;3.08;;;22.40;85.70;;;;;;10449097;28;20086;-23
2023/05/10 17:33:33;;;;;;;5.25;3.10;;;22.40;85.10;;;;;;10442706;28;20463;-24
2023/05/10 17:38:35;;;;;;;7.70;3.53;;;22.30;85.10;;;;;;10436262;28;20091;-24
2023/05/10 17:43:39;;;;;;;6.40;3.17;;;22.10;89.70;;;;;;10445855;28;20052;-25
2023/05/10 17:48:40;;;;;;;8.57;3.70;;;21.10;94.50;;;;;;10439196;28;20071;-25
2023/05/10 17:53:43;;;;;;;7.40;3.13;;;22.00;91.20;;;;;;10436386;28;20128;-25
2023/05/10 17:58:46;;;;;;;4.63;3.60;;;21.60;93.40;;;;;;10445067;28;20059;-24
2023/05/10 18:03:50;;;;;;;4.53;3.47;;;20.70;90.20;;;;;;10433536;28;20051;-24
2023/05/10 18:08:52;;;;;;;5.63;3.25;;;19.50;97.10;;;;;;10433282;28;20119;-24
2023/05/10 18:13:55;;;;;;;6.40;2.95;;;19.90;99.90;;;;;;10437051;28;20478;-24
2023/05/10 18:18:57;;;;;;;6.22;3.05;;;21.90;93.00;;;;;;10452671;28;20088;-23
2023/05/10 18:23:59;;;;;;;4.97;2.95;;;22.60;86.20;;;;;;10446152;28;20882;-24
2023/05/10 18:29:02;;;;;;;4.05;2.60;;;22.70;83.90;;;;;;10450544;28;20567;-24
2023/05/10 18:34:05;;;;;;;3.28;2.50;;;23.00;79.80;;;;;;10441676;28;20103;-24
2023/05/10 18:39:09;;;;;;;3.78;2.20;;;23.10;78.50;;;;;;10441739;28;20402;-24
2023/05/10 18:44:13;;;;;;;5.50;2.70;;;23.10;77.40;;;;;;10452805;28;20139;-24
2023/05/10 18:49:15;;;;;;;3.70;1.90;;;23.10;77.50;;;;;;10440104;28;20045;-24
2023/05/10 18:54:17;;;;;;;4.18;2.30;;;23.10;77.20;;;;;;10443260;28;20049;-24
2023/05/10 18:59:20;;;;;;;;;;;23.00;78.20;;;;;;10448110;28;20446;-24
2023/05/10 19:04:22;;;;;;;5.28;2.08;;;23.10;77.10;;;;;;10445954;28;19928;-24
2023/05/10 19:09:25;;;;;;;3.30;1.88;;;23.00;77.80;;;;;;10441925;28;20371;-24
2023/05/10 19:14:29;;;;;;;4.72;2.30;;;22.80;78.80;;;;;;10447106;28;20045;-24
2023/05/10 19:19:31;;;;;;;4.93;2.10;;;23.00;81.50;;;;;;10444789;28;20072;-24
2023/05/10 19:24:33;;;;;;;3.65;1.83;;;23.10;77.30;;;;;;10446566;28;20041;-25
2023/05/10 19:29:36;;;;;;;2.85;1.60;;;23.10;76.00;;;;;;10448113;28;20490;-24
2023/05/10 19:34:38;;;;;;;2.65;1.60;;;23.10;75.30;;;;;;10450438;28;20489;-23
2023/05/10 19:39:40;;;;;;;1.75;1.30;;;23.10;74.80;;;;;;10448105;28;20150;-24
2023/05/10 19:44:43;;;;;;;;;;;22.90;74.10;;;;;;10447594;28;20102;-24
2023/05/10 19:49:45;;;;;;;1.85;1.27;;;23.00;74.70;;;;;;10447144;28;19925;-23
2023/05/10 19:54:47;;;;;;;2.38;1.38;;;23.00;74.70;;;;;;10447223;28;20072;-23
2023/05/10 19:59:50;;;;;;;;;;;23.00;74.40;;;;;;10446410;28;20132;-24
2023/05/10 20:04:52;;;;;;;3.45;1.60;;;23.00;73.90;;;;;;10447529;28;19959;-23
2023/05/10 20:09:54;;;;;;;2.60;1.52;;;23.00;73.80;;;;;;10444238;28;20083;-24
2023/05/10 20:14:57;;;;;;;2.15;1.67;;;22.90;73.60;;;;;;10447083;28;20053;-24
2023/05/10 20:19:59;;;;;;;2.47;2.05;;;22.90;73.50;;;;;;10447058;28;20608;-23
2023/05/10 20:25:01;;;;;;;;;;;22.90;73.50;;;;;;10442705;28;20051;-23
2023/05/10 20:30:05;;;;;;;2.30;1.60;;;22.90;73.50;;;;;;10443701;28;20380;-24
2023/05/10 20:35:09;;;;;;;2.15;1.77;;;22.90;73.50;;;;;;10440027;28;20071;-23
2023/05/10 20:40:11;;;;;;;2.60;1.98;;;22.80;73.30;;;;;;10439625;28;20048;-23
2023/05/10 20:45:15;;;;;;;1.95;1.75;;;22.80;73.30;;;;;;10440214;28;20147;-23
2023/05/10 20:50:17;;;;;;;4.55;2.03;;;22.80;73.30;;;;;;10442185;28;20128;-23
2023/05/10 20:55:18;;;;;;;3.10;2.22;;;22.80;73.30;;;;;;10433786;28;20048;-24
2023/05/10 21:00:22;;;;;;;3.17;2.10;;;22.80;73.30;;;;;;10423843;28;20064;-24
2023/05/10 21:05:24;;;;;;;3.53;2.42;;;22.80;73.30;;;;;;10440856;28;20102;-25
2023/05/10 21:10:27;;;;;;;3.78;2.35;;;22.80;73.30;;;;;;10432951;28;20037;-24
2023/05/10 21:15:30;;;;;;;4.20;2.38;;;22.70;73.30;;;;;;10436070;28;20456;-24
2023/05/10 21:20:32;;;;;;;3.03;2.13;;;22.70;73.30;;;;;;10447531;28;20064;-23
2023/05/10 21:25:34;;;;;;;6.55;2.13;;;22.70;73.30;;;;;;10442307;28;20136;-23
2023/05/10 21:30:37;;;;;;;;;;;22.70;73.30;;;;;;10446424;28;20502;-23
2023/05/10 21:35:41;;;;;;;2.88;1.80;;;22.70;73.40;;;;;;10446944;28;19969;-24
2023/05/10 21:40:43;;;;;;;1.98;1.50;;;22.70;73.20;;;;;;10447728;28;20048;-24
2023/05/10 21:45:46;;;;;;;2.55;2.00;;;22.60;73.20;;;;;;10432662;28;20053;-24
2023/05/10 21:50:48;;;;;;;3.13;2.08;;;22.60;73.20;;;;;;10452941;28;20557;-24
2023/05/10 21:55:50;;;;;;;1.40;1.25;;;22.60;73.20;;;;;;10458494;28;20454;-24
2023/05/10 22:00:54;;;;;;;2.28;1.73;;;22.60;73.20;;;;;;10449379;28;20095;-22
2023/05/10 22:05:56;;;;;;;2.78;1.67;;;22.60;73.20;;;;;;10451193;28;20056;-24
2023/05/10 22:10:57;;;;;;;2.38;1.48;;;22.60;73.20;;;;;;10451428;28;20774;-23
2023/05/10 22:16:01;;;;;;;4.35;1.83;;;22.50;73.20;;;;;;10443158;28;20053;-24
2023/05/10 22:21:02;;;;;;;2.22;1.85;;;22.50;73.30;;;;;;10451987;28;20132;-23
2023/05/10 22:26:05;;;;;;;2.22;1.63;;;22.50;73.10;;;;;;10452095;28;20053;-23
2023/05/10 22:31:10;;;;;;;;;;;22.50;73.10;;;;;;10441206;28;20047;-23
2023/05/10 22:36:13;;;;;;;3.13;1.83;;;22.50;73.40;;;;;;10436926;28;19920;-23
2023/05/10 22:41:16;;;;;;;1.67;1.52;;;22.50;73.20;;;;;;10435950;28;20091;-23
2023/05/10 22:46:19;;;;;;;2.70;2.03;;;22.40;73.20;;;;;;10442454;28;20490;-24
2023/05/10 22:51:21;;;;;;;2.45;1.73;;;22.40;73.30;;;;;;10440770;28;20069;-24
2023/05/10 22:56:23;;;;;;;1.95;1.70;;;22.40;73.20;;;;;;10443222;28;20049;-24
2023/05/10 23:01:27;;;;;;;;;;;22.40;73.30;;;;;;10453761;28;20044;-22
2023/05/10 23:06:28;;;;;;;2.47;1.60;;;22.30;73.40;;;;;;10457194;28;20579;-23
2023/05/10 23:11:30;;;;;;;2.58;1.85;;;22.30;73.40;;;;;;10448046;28;20435;-23
2023/05/10 23:16:34;;;;;;;3.25;1.60;;;22.30;73.30;;;;;;10448811;28;20044;-23
2023/05/10 23:21:36;;;;;;;2.15;1.67;;;22.30;73.50;;;;;;10449358;28;20072;-23
2023/05/10 23:26:38;;;;;;;2.78;1.85;;;22.30;73.50;;;;;;10452567;28;20060;-23
2023/05/10 23:31:44;;;;;;;3.35;1.77;;;22.30;73.50;;;;;;10446503;28;20055;-23
2023/05/10 23:36:46;;;;;;;1.85;1.50;;;22.30;73.60;;;;;;10449686;28;20079;-23
2023/05/10 23:41:48;;;;;;;1.58;1.48;;;22.20;73.60;;;;;;10449719;28;20078;-23
2023/05/10 23:46:51;;;;;;;2.33;1.38;;;22.20;73.70;;;;;;10443633;28;20516;-23
2023/05/10 23:51:53;;;;;;;1.65;1.30;;;22.20;73.70;;;;;;10452030;28;20540;-24
2023/05/10 23:56:55;;;;;;;2.03;1.20;;;22.20;73.60;;;;;;10450945;28;20041;-22
